• Join FlightAware (Why Join?)
  • Login
  • US Flag 
Trick or treat! (Boo!!) 
07:25AM EDT


 

Airport Tracker/Info


-or-


 

Live Flight TrackerFlight Track Log ✈ COA9970 ✈ 31-Jul-2009 ✈ KINT - KROW

Flight Track Log - Related Links

Times and Time Zones

All times are in EDT time to prevent confusion due to time zone crossing. See the COA9970 flight status page for this flight to view local times or setup timezone preferences in your user account.

Time Position Orientation Groundspeed Altitude Reporting Facility
EDT Latitude Longitude Course Direction KTS MPH feet Rate Location/Type
10:59AM 35.9897 -80.1919 331° Northwest 199 229 4,600  Level Atlanta Center
11:03AM 36.2050 -80.3411 305° West 246 283 8,000 780 Climbing Atlanta Center
11:03AM 36.2092 -80.3486 319° Northwest 242 278 8,000 1,260 Level Atlanta Center
11:04AM 36.2544 -80.3981 315° West 251 289 9,300 1,920 Climbing Atlanta Center
11:05AM 36.3108 -80.4678 315° West 256 295 11,300 2,460 Climbing Atlanta Center
11:06AM 36.3778 -80.5497 316° Northwest 295 339 14,300 2,820 Climbing Atlanta Center
11:07AM 36.4469 -80.6319 308° West 334 384 17,000 2,640 Climbing Atlanta Center
11:08AM 36.5100 -80.7325 259° West 361 415 19,600 2,520 Climbing Atlanta Center
11:09AM 36.4903 -80.8547 257° West 346 398 22,100 1,740 Climbing Atlanta Center
11:10AM 36.4683 -80.9744 257° West 351 404 23,100 1,500 Climbing Atlanta Center
11:11AM 36.4444 -81.1017 258° West 363 418 25,100 1,740 Climbing Atlanta Center
11:12AM 36.4225 -81.2289 257° West 373 429 26,600 1,380 Climbing Atlanta Center
11:13AM 36.3983 -81.3639 258° West 394 453 28,200 1,560 Climbing Atlanta Center
11:14AM 36.3703 -81.5222 258° West 402 463 30,100 1,980 Climbing Atlanta Center
11:15AM 36.3458 -81.6594 257° West 409 471 32,200 1,920 Climbing Atlanta Center
11:16AM 36.3214 -81.7917 254° West 403 464 34,000 900 Climbing Atlanta Center
11:17AM 36.2961 -81.9031 257° West 390 449 34,000  Level Atlanta Center
11:18AM 36.2733 -82.0300 259° West 379 436 34,000  Level Atlanta Center
11:19AM 36.2506 -82.1694 253° West 379 436 34,000  Level Atlanta Center
11:20AM 36.2231 -82.2833 256° West 379 436 34,000  Level Atlanta Center
11:21AM 36.1978 -82.4125 256° West 379 436 34,000  Level Atlanta Center
11:22AM 36.1742 -82.5339 256° West 379 436 34,000  Level Atlanta Center
11:23AM 36.1486 -82.6606 257° West 379 436 34,000  Level Atlanta Center
11:24AM 36.1250 -82.7869 256° West 379 436 34,000  Level Atlanta Center
11:25AM 36.0989 -82.9131 257° West 379 436 34,000  Level Atlanta Center
11:26AM 36.0750 -83.0394 257° West 379 436 34,000  Level Atlanta Center
11:27AM 36.0489 -83.1758 256° West 379 436 34,000  Level Atlanta Center
11:28AM 36.0228 -83.3019 256° West 379 436 34,000  Level Atlanta Center
11:29AM 35.9964 -83.4281 254° West 379 436 34,000  Level Atlanta Center
11:30AM 35.9697 -83.5411 257° West 385 443 34,000  Level Atlanta Center
11:31AM 35.9450 -83.6719 255° West 385 443 34,000  Level Atlanta Center
11:32AM 35.9183 -83.7978 261° West 385 443 34,000  Level Atlanta Center
11:33AM 35.9017 -83.9311 277° West 390 449 34,000  Level Atlanta Center
11:34AM 35.9144 -84.0694 278° West 396 456 34,000  Level Atlanta Center
11:35AM 35.9289 -84.2028 276° West 401 461 34,000  Level Atlanta Center
11:36AM 35.9411 -84.3361 278° West 406 467 34,000  Level Atlanta Center
11:37AM 35.9553 -84.4697 276° West 406 467 34,000  Level Atlanta Center
11:38AM 35.9672 -84.6031 277° West 406 467 34,000  Level Atlanta Center
11:39AM 35.9808 -84.7319 279° West 403 464 34,000  Level Memphis Center
11:40AM 35.9972 -84.8617 275° West 398 458 34,000  Level Memphis Center
11:41AM 36.0072 -84.9969 274° West 398 458 34,000  Level Memphis Center
11:42AM 36.0147 -85.1247 276° West 391 450 34,000  Level Memphis Center
11:43AM 36.0239 -85.2397 276° West 380 437 34,000  Level Memphis Center
11:44AM 36.0353 -85.3697 276° West 380 437 34,000  Level Memphis Center
11:45AM 36.0469 -85.5050 276° West 380 437 34,000  Level Memphis Center
11:46AM 36.0583 -85.6353 275° West 380 437 34,000  Level Memphis Center
11:47AM 36.0672 -85.7633 275° West 385 443 34,000  Level Memphis Center
11:48AM 36.0756 -85.8758 275° West 380 437 34,000  Level Memphis Center
11:49AM 36.0842 -86.0064 276° West 380 437 34,000  Level Memphis Center
11:50AM 36.0950 -86.1367 276° West 385 443 34,000  Level Memphis Center
11:51AM 36.1056 -86.2619 274° West 385 443 34,000  Level Memphis Center
11:52AM 36.1139 -86.3953 275° West 385 443 34,000  Level Memphis Center
11:53AM 36.1222 -86.5233 274° West 385 443 34,000  Level Memphis Center
11:54AM 36.1308 -86.6667 269° West 380 437 34,000  Level Memphis Center
11:55AM 36.1283 -86.8006 267° West 386 444 34,000  Level Memphis Center
11:56AM 36.1236 -86.9317 268° West 386 444 34,000  Level Memphis Center
11:57AM 36.1189 -87.0631 267° West 386 444 34,000  Level Memphis Center
11:58AM 36.1142 -87.1942 267° West 386 444 34,000  Level Memphis Center
11:59AM 36.1086 -87.3100 266° West 386 444 34,000  Level Memphis Center
12:00PM 36.1014 -87.4414 269° West 386 444 34,000  Level Memphis Center
12:01PM 36.0994 -87.5467 273° West 386 444 34,000  Level Memphis Center
12:02PM 36.1050 -87.7006 272° West 381 438 34,000  Level Memphis Center
12:03PM 36.1078 -87.8289 271° West 381 438 34,000  Level Memphis Center
12:04PM 36.1106 -87.9678 270° West 381 438 34,000  Level Memphis Center
12:05PM 36.1108 -88.0961 274° West 375 432 34,000  Level Memphis Center
12:06PM 36.1169 -88.2064 271° West 369 425 34,000  Level Memphis Center
12:07PM 36.1192 -88.3347 271° West 369 425 34,000  Level Memphis Center
12:08PM 36.1211 -88.4633 271° West 369 425 34,000  Level Memphis Center
12:09PM 36.1231 -88.5917 271° West 369 425 34,000  Level Memphis Center
12:10PM 36.1247 -88.7175 272° West 375 432 34,000  Level Memphis Center
12:11PM 36.1286 -88.8486 270° West 375 432 34,000  Level Memphis Center
12:12PM 36.1281 -88.9769 271° West 375 432 34,000  Level Memphis Center
12:13PM 36.1294 -89.1056 269° West 380 437 34,000  Level Memphis Center
12:14PM 36.1283 -89.2211 272° West 385 443 34,000  Level Memphis Center
12:15PM 36.1317 -89.3547 271° West 385 443 34,000  Level Memphis Center
12:16PM 36.1328 -89.5114 270° West 385 443 34,000  Level Memphis Center
12:17PM 36.1336 -89.6400 272° West 385 443 34,000  Level Memphis Center
12:18PM 36.1364 -89.7683 269° West 385 443 34,000  Level Memphis Center
12:19PM 36.1347 -89.8994 271° West 379 436 34,000  Level Memphis Center
12:20PM 36.1372 -90.0256 271° West 379 436 34,000  Level Memphis Center
12:21PM 36.1397 -90.1539 270° West 379 436 34,000  Level Memphis Center
12:22PM 36.1397 -90.2542 271° West 384 442 34,000  Level Memphis Center
12:23PM 36.1419 -90.4083 269° West 384 442 34,000  Level Memphis Center
12:24PM 36.1397 -90.5369 271° West 384 442 34,000  Level Memphis Center
12:25PM 36.1417 -90.6653 270° West 384 442 34,000  Level Memphis Center
12:26PM 36.1411 -90.7939 270° West 384 442 34,000  Level Memphis Center
12:27PM 36.1406 -90.9225 273° West 384 442 34,000  Level Memphis Center
12:28PM 36.1464 -91.0458 271° West 379 436 34,000  Level Memphis Center
12:29PM 36.1478 -91.1717 275° West 374 430 34,000  Level Memphis Center
12:30PM 36.1572 -91.2978 273° West 374 430 34,000  Level Memphis Center
12:31PM 36.1625 -91.4239 272° West 369 425 34,000  Level Memphis Center
12:32PM 36.1656 -91.5500 272° West 369 425 34,000  Level Memphis Center
12:33PM 36.1683 -91.6783 273° West 369 425 34,000  Level Memphis Center
12:34PM 36.1733 -91.7892 274° West 364 419 34,000  Level Memphis Center
12:35PM 36.1803 -91.9153 275° West 364 419 34,000  Level Memphis Center
12:36PM 36.1889 -92.0414 273° West 364 419 34,000  Level Memphis Center
12:37PM 36.1936 -92.1650 272° West 364 419 34,000  Level Memphis Center
12:38PM 36.1978 -92.2911 273° West 364 419 34,000  Level Memphis Center
12:39PM 36.2022 -92.4147 271° West 364 419 34,000  Level Memphis Center
12:40PM 36.2042 -92.5381 273° West 364 419 34,000  Level Memphis Center
12:41PM 36.2103 -92.6642 272° West 364 419 34,000  Level Memphis Center
12:42PM 36.2142 -92.7853 272° West 364 419 34,000  Level Memphis Center
12:43PM 36.2181 -92.9114 271° West 364 419 34,000  Level Memphis Center
12:44PM 36.2194 -93.0375 273° West 364 419 34,000  Level Memphis Center
12:45PM 36.2250 -93.1639 272° West 370 426 34,000  Level Memphis Center
12:46PM 36.2286 -93.2850 271° West 365 420 34,000  Level Memphis Center
12:47PM 36.2297 -93.4111 273° West 365 420 34,000  Level Memphis Center
12:48PM 36.2350 -93.5347 270° West 365 420 34,000  Level Memphis Center
12:49PM 36.2358 -93.6583 275° West 365 420 34,000  Level Memphis Center
12:50PM 36.2447 -93.7950 270° West 365 420 34,000  Level Memphis Center
12:51PM 36.2408 -93.9242 273° West 34,000  Level Kansas City Center
12:52PM 36.2456 -94.0322 271° West 360 414 34,000  Level Kansas City Center
12:53PM 36.2481 -94.1661 268° West 360 414 34,000  Level Kansas City Center
12:54PM 36.2442 -94.2872 268° West 360 414 34,000  Level Kansas City Center
12:55PM 36.2400 -94.4108 268° West 366 421 34,000  Level Kansas City Center
12:56PM 36.2358 -94.5369 269° West 366 421 34,000  Level Kansas City Center
12:57PM 36.2339 -94.6606 267° West 366 421 34,000  Level Kansas City Center
12:58PM 36.2294 -94.7842 269° West 366 421 34,000  Level Kansas City Center
12:59PM 36.2269 -94.9103 267° West 366 421 34,000  Level Kansas City Center
01:00PM 36.2222 -95.0339 267° West 366 421 34,000  Level Kansas City Center
01:01PM 36.2175 -95.1575 267° West 366 421 34,000  Level Kansas City Center
01:02PM 36.2125 -95.2808 267° West 366 421 34,000  Level Kansas City Center
01:03PM 36.2078 -95.3839 267° West 366 421 34,000  Level Kansas City Center
01:04PM 36.2025 -95.5203 269° West 366 421 34,000  Level Kansas City Center
01:05PM 36.2014 -95.6464 267° West 366 421 34,000  Level Kansas City Center
01:06PM 36.1958 -95.7672 246° West 361 415 34,000  Level Kansas City Center
01:07PM 36.1550 -95.8822 240° Southwest 361 415 34,000  Level Kansas City Center
01:08PM 36.1058 -95.9894 241° Southwest 361 415 34,000  Level Kansas City Center
01:09PM 36.0583 -96.0964 240° Southwest 361 415 34,000  Level Kansas City Center
01:10PM 36.0089 -96.2033 241° Southwest 361 415 34,000  Level Kansas City Center
01:11PM 35.9594 -96.3125 241° Southwest 366 421 34,000  Level Kansas City Center
01:12PM 35.9075 -96.4267 241° Southwest 366 421 34,000  Level Kansas City Center
01:13PM 35.8600 -96.5306 241° Southwest 366 421 34,000  Level Kansas City Center
01:15PM 35.7919 -96.6792 240° Southwest 372 428 34,000  Level Fort Worth Center
01:16PM 35.7281 -96.8178 240° Southwest 372 428 34,000  Level Fort Worth Center
01:17PM 35.6783 -96.9256 240° Southwest 372 428 34,000  Level Fort Worth Center
01:18PM 35.6289 -97.0306 240° Southwest 367 422 34,000  Level Fort Worth Center
01:19PM 35.5789 -97.1381 242° Southwest 362 417 34,000  Level Fort Worth Center
01:20PM 35.5333 -97.2428 242° Southwest 362 417 34,000  Level Fort Worth Center
01:21PM 35.4939 -97.3344 238° Southwest 362 417 34,000  Level Fort Worth Center
01:22PM 35.4269 -97.4644 254° West 378 435 34,000  Level Fort Worth Center
01:23PM 35.4019 -97.5689 252° West 383 441 34,000  Level Fort Worth Center
01:24PM 35.3664 -97.7064 252° West 371 427 34,000  Level Fort Worth Center
01:25PM 35.3367 -97.8208 252° West 364 419 34,000  Level Fort Worth Center
01:26PM 35.3050 -97.9375 253° West 364 419 34,000  Level Fort Worth Center
01:27PM 35.2753 -98.0544 252° West 364 419 34,000  Level Fort Worth Center
01:28PM 35.2475 -98.1608 253° West 364 419 34,000  Level Fort Worth Center
01:29PM 35.2175 -98.2775 253° West 364 419 34,000  Level Fort Worth Center
01:30PM 35.1875 -98.3942 251° West 364 419 34,000  Level Fort Worth Center
01:31PM 35.1617 -98.4853 253° West 359 413 34,000  Level Fort Worth Center
01:32PM 35.1269 -98.6269 252° West 359 413 34,000  Level Fort Worth Center
01:33PM 35.0947 -98.7458 252° West 364 419 34,000  Level Fort Worth Center
01:34PM 35.0642 -98.8619 253° West 364 419 34,000  Level Fort Worth Center
01:35PM 35.0311 -98.9906 252° West 364 419 34,000  Level Fort Worth Center
01:36PM 34.9983 -99.1117 251° West 364 419 34,000  Level Fort Worth Center
01:37PM 34.9656 -99.2275 253° West 364 419 34,000  Level Fort Worth Center
01:38PM 34.9411 -99.3233 252° West 364 419 34,000  Level Fort Worth Center
01:39PM 34.9033 -99.4667 252° West 364 419 34,000  Level Fort Worth Center
01:40PM 34.8653 -99.6125 250° West 369 425 34,000  Level Fort Worth Center
01:41PM 34.8300 -99.7306 253° West 369 425 34,000  Level Fort Worth Center
01:42PM 34.8006 -99.8511 249° West 374 430 34,000  Level Fort Worth Center
01:43PM 34.7647 -99.9639 254° West 374 430 34,000  Level Fort Worth Center
01:44PM 34.7353 -100.0870 251° West 374 430 34,000  Level Fort Worth Center
01:45PM 34.6853 -100.2610 251° West 378 435 34,000  Level Albuquerque Center
01:46PM 34.6672 -100.3240 251° West 372 428 34,000  Level Fort Worth Center
01:47PM 34.6378 -100.4270 251° West 372 428 34,000  Level Fort Worth Center
01:48PM 34.6033 -100.5470 251° West 372 428 34,000  Level Fort Worth Center
01:49PM 34.5692 -100.6670 252° West 372 428 34,000  Level Fort Worth Center
01:50PM 34.5367 -100.7860 251° West 378 435 34,000  Level Fort Worth Center
01:51PM 34.5022 -100.9060 250° West 378 435 34,000  Level Fort Worth Center
01:52PM 34.4675 -101.0230 252° West 378 435 34,000  Level Fort Worth Center
01:53PM 34.4347 -101.1430 251° West 383 441 34,000  Level Fort Worth Center
01:54PM 34.4019 -101.2590 249° West 383 441 34,000  Level Fort Worth Center
01:55PM 34.3606 -101.3860 253° West 378 435 34,000  Level Fort Worth Center
01:56PM 34.3294 -101.5070 249° West 378 435 34,000  Level Fort Worth Center
01:57PM 34.2922 -101.6260 251° West 378 435 34,000  Level Fort Worth Center
01:58PM 34.2592 -101.7400 251° West 378 435 34,000  Level Fort Worth Center
01:59PM 34.2211 -101.8720 251° West 381 438 34,000  Level Fort Worth Center
02:00PM 34.1831 -102.0030 251° West 381 438 34,000  Level Fort Worth Center
02:01PM 34.1567 -102.0940 250° West 381 438 34,000  Level Fort Worth Center
02:02PM 34.1136 -102.2400 250° West 381 438 34,000  Level Fort Worth Center
02:03PM 34.0775 -102.3580 249° West 381 438 34,000  Level Fort Worth Center
02:04PM 34.0369 -102.4860 250° West 379 436 34,000  Level Fort Worth Center
02:05PM 33.9983 -102.6170 251° West 386 444 34,000  Level Fort Worth Center
02:06PM 33.9667 -102.7250 250° West 381 438 34,000  Level Fort Worth Center
02:07PM 33.9278 -102.8550 250° West 381 438 34,000 -300 Level Fort Worth Center
02:08PM 33.8911 -102.9750 249° West 381 438 33,500 -840 Descending Fort Worth Center
02:09PM 33.8650 -103.0570 249° West 366 421 32,600 -2,160 Descending Albuquerque Center
02:10PM 33.8294 -103.1710 251° West 377 434 29,900 -2,640 Descending Albuquerque Center
02:11PM 33.7958 -103.2860 249° West 377 434 27,400 -2,280 Descending Albuquerque Center
02:12PM 33.7639 -103.3870 249° West 360 414 25,400 -2,160 Descending Albuquerque Center
02:13PM 33.7278 -103.4990 250° West 345 397 23,100 -2,340 Descending Albuquerque Center
02:14PM 33.6975 -103.5980 248° West 340 391 20,800 -2,340 Descending Albuquerque Center
02:15PM 33.6631 -103.6990 250° West 333 383 18,500 -2,280 Descending Albuquerque Center
02:16PM 33.6289 -103.8120 248° West 333 383 16,300 -2,160 Descending Albuquerque Center
02:17PM 33.5983 -103.9010 248° West 333 383 14,200 -2,100 Descending Albuquerque Center